sensor_id;sensor_type;location;lat;lon;timestamp;temperature;humidity
31575;DHT22;18182;1.328;103.810;2023-06-14T00:01:06;29.20;99.90
31575;DHT22;18182;1.328;103.810;2023-06-14T00:03:32;29.20;99.90
31575;DHT22;18182;1.328;103.810;2023-06-14T00:05:58;29.30;99.90
31575;DHT22;18182;1.328;103.810;2023-06-14T00:08:25;29.30;99.90
31575;DHT22;18182;1.328;103.810;2023-06-14T00:10:51;29.30;99.90
31575;DHT22;18182;1.328;103.810;2023-06-14T00:13:17;29.30;99.90
31575;DHT22;18182;1.328;103.810;2023-06-14T00:15:43;29.30;99.90
31575;DHT22;18182;1.328;103.810;2023-06-14T00:18:10;29.30;99.90
31575;DHT22;18182;1.328;103.810;2023-06-14T00:20:37;29.30;99.90
31575;DHT22;18182;1.328;103.810;2023-06-14T00:23:03;29.40;99.90
31575;DHT22;18182;1.328;103.810;2023-06-14T00:25:29;29.40;99.90
31575;DHT22;18182;1.328;103.810;2023-06-14T00:27:56;29.50;99.90
31575;DHT22;18182;1.328;103.810;2023-06-14T00:30:22;29.40;99.90
31575;DHT22;18182;1.328;103.810;2023-06-14T00:32:49;29.40;99.90
31575;DHT22;18182;1.328;103.810;2023-06-14T00:35:15;29.40;99.90
31575;DHT22;18182;1.328;103.810;2023-06-14T00:37:41;29.50;99.90
31575;DHT22;18182;1.328;103.810;2023-06-14T00:40:08;29.40;99.90
31575;DHT22;18182;1.328;103.810;2023-06-14T00:42:34;29.40;99.90
31575;DHT22;18182;1.328;103.810;2023-06-14T00:45:00;29.30;99.90
31575;DHT22;18182;1.328;103.810;2023-06-14T00:47:26;29.30;99.90
31575;DHT22;18182;1.328;103.810;2023-06-14T00:49:53;29.20;99.90
31575;DHT22;18182;1.328;103.810;2023-06-14T00:52:19;29.10;99.90
31575;DHT22;18182;1.328;103.810;2023-06-14T00:54:46;29.20;99.90
31575;DHT22;18182;1.328;103.810;2023-06-14T00:57:12;29.10;99.90
31575;DHT22;18182;1.328;103.810;2023-06-14T00:59:48;29.00;99.90
31575;DHT22;18182;1.328;103.810;2023-06-14T01:02:15;29.00;99.90
31575;DHT22;18182;1.328;103.810;2023-06-14T01:04:43;29.00;99.90
31575;DHT22;18182;1.328;103.810;2023-06-14T01:10:09;29.00;99.90
31575;DHT22;18182;1.328;103.810;2023-06-14T01:12:37;29.00;99.90
31575;DHT22;18182;1.328;103.810;2023-06-14T01:15:05;29.00;99.90
31575;DHT22;18182;1.328;103.810;2023-06-14T01:17:31;29.00;99.90
31575;DHT22;18182;1.328;103.810;2023-06-14T01:20:01;29.10;99.90
31575;DHT22;18182;1.328;103.810;2023-06-14T01:22:28;29.20;99.90
31575;DHT22;18182;1.328;103.810;2023-06-14T01:24:54;29.20;99.90
31575;DHT22;18182;1.328;103.810;2023-06-14T01:27:22;29.30;99.90
31575;DHT22;18182;1.328;103.810;2023-06-14T01:29:52;29.40;99.90
31575;DHT22;18182;1.328;103.810;2023-06-14T01:32:23;29.20;99.90
31575;DHT22;18182;1.328;103.810;2023-06-14T01:34:50;29.20;99.90
31575;DHT22;18182;1.328;103.810;2023-06-14T01:37:16;29.20;99.90
31575;DHT22;18182;1.328;103.810;2023-06-14T01:39:43;29.30;99.90
31575;DHT22;18182;1.328;103.810;2023-06-14T01:42:10;29.30;99.90
31575;DHT22;18182;1.328;103.810;2023-06-14T01:44:37;29.40;99.90
31575;DHT22;18182;1.328;103.810;2023-06-14T01:47:03;29.50;99.90
31575;DHT22;18182;1.328;103.810;2023-06-14T01:49:29;29.40;99.90
31575;DHT22;18182;1.328;103.810;2023-06-14T01:51:55;29.50;99.90
31575;DHT22;18182;1.328;103.810;2023-06-14T01:54:21;29.60;99.90
31575;DHT22;18182;1.328;103.810;2023-06-14T01:56:48;29.70;99.90
31575;DHT22;18182;1.328;103.810;2023-06-14T01:59:14;29.70;99.90
31575;DHT22;18182;1.328;103.810;2023-06-14T02:01:41;29.80;99.90
31575;DHT22;18182;1.328;103.810;2023-06-14T02:04:07;29.80;99.90
31575;DHT22;18182;1.328;103.810;2023-06-14T02:06:34;29.80;99.90
31575;DHT22;18182;1.328;103.810;2023-06-14T02:09:00;29.80;99.90
31575;DHT22;18182;1.328;103.810;2023-06-14T02:11:26;29.80;99.90
31575;DHT22;18182;1.328;103.810;2023-06-14T02:13:52;29.70;99.90
31575;DHT22;18182;1.328;103.810;2023-06-14T02:16:20;29.70;99.90
31575;DHT22;18182;1.328;103.810;2023-06-14T02:18:47;29.60;99.90
31575;DHT22;18182;1.328;103.810;2023-06-14T02:21:14;29.60;99.90
31575;DHT22;18182;1.328;103.810;2023-06-14T02:23:40;29.50;99.90
31575;DHT22;18182;1.328;103.810;2023-06-14T02:26:07;29.70;99.90
31575;DHT22;18182;1.328;103.810;2023-06-14T02:28:33;29.70;99.90
31575;DHT22;18182;1.328;103.810;2023-06-14T02:31:01;29.70;99.90
31575;DHT22;18182;1.328;103.810;2023-06-14T02:33:27;29.70;99.90
31575;DHT22;18182;1.328;103.810;2023-06-14T02:35:53;29.70;99.90
31575;DHT22;18182;1.328;103.810;2023-06-14T02:38:19;29.70;99.90
31575;DHT22;18182;1.328;103.810;2023-06-14T02:40:46;29.80;99.90
31575;DHT22;18182;1.328;103.810;2023-06-14T02:43:12;29.80;99.90
31575;DHT22;18182;1.328;103.810;2023-06-14T02:45:38;29.80;99.90
31575;DHT22;18182;1.328;103.810;2023-06-14T02:48:06;29.80;99.90
31575;DHT22;18182;1.328;103.810;2023-06-14T02:50:32;29.80;99.90
31575;DHT22;18182;1.328;103.810;2023-06-14T02:52:58;29.90;99.90
31575;DHT22;18182;1.328;103.810;2023-06-14T02:55:24;30.00;99.90
31575;DHT22;18182;1.328;103.810;2023-06-14T02:57:51;30.00;99.90
31575;DHT22;18182;1.328;103.810;2023-06-14T03:00:19;30.10;99.90
31575;DHT22;18182;1.328;103.810;2023-06-14T03:02:45;30.10;99.90
31575;DHT22;18182;1.328;103.810;2023-06-14T03:05:12;30.10;99.90
31575;DHT22;18182;1.328;103.810;2023-06-14T03:07:38;30.00;99.90
31575;DHT22;18182;1.328;103.810;2023-06-14T03:10:10;30.10;99.90
31575;DHT22;18182;1.328;103.810;2023-06-14T03:12:38;30.10;99.90
31575;DHT22;18182;1.328;103.810;2023-06-14T03:15:05;30.10;99.90
31575;DHT22;18182;1.328;103.810;2023-06-14T03:17:31;30.10;99.90
31575;DHT22;18182;1.328;103.810;2023-06-14T03:19:59;30.10;99.90
31575;DHT22;18182;1.328;103.810;2023-06-14T03:22:25;30.10;99.90
31575;DHT22;18182;1.328;103.810;2023-06-14T03:24:52;30.10;99.90
31575;DHT22;18182;1.328;103.810;2023-06-14T03:27:19;30.20;99.90
31575;DHT22;18182;1.328;103.810;2023-06-14T03:29:45;30.20;99.90
31575;DHT22;18182;1.328;103.810;2023-06-14T03:32:12;30.40;99.90
31575;DHT22;18182;1.328;103.810;2023-06-14T03:34:38;30.50;99.90
31575;DHT22;18182;1.328;103.810;2023-06-14T03:37:04;30.60;99.90
31575;DHT22;18182;1.328;103.810;2023-06-14T03:39:30;30.80;99.90
31575;DHT22;18182;1.328;103.810;2023-06-14T03:41:57;30.90;99.90
31575;DHT22;18182;1.328;103.810;2023-06-14T03:44:23;31.10;99.90
31575;DHT22;18182;1.328;103.810;2023-06-14T03:46:49;31.10;99.90
31575;DHT22;18182;1.328;103.810;2023-06-14T03:49:15;31.20;99.90
31575;DHT22;18182;1.328;103.810;2023-06-14T03:51:42;31.30;99.90
31575;DHT22;18182;1.328;103.810;2023-06-14T03:54:08;31.30;99.90
31575;DHT22;18182;1.328;103.810;2023-06-14T03:56:34;31.10;99.90
31575;DHT22;18182;1.328;103.810;2023-06-14T03:59:01;31.10;99.90
31575;DHT22;18182;1.328;103.810;2023-06-14T04:01:28;31.10;99.90
31575;DHT22;18182;1.328;103.810;2023-06-14T04:03:56;30.90;99.90
31575;DHT22;18182;1.328;103.810;2023-06-14T04:06:23;30.80;99.90
31575;DHT22;18182;1.328;103.810;2023-06-14T04:08:51;30.60;99.90
31575;DHT22;18182;1.328;103.810;2023-06-14T04:11:17;30.60;99.90
31575;DHT22;18182;1.328;103.810;2023-06-14T04:13:44;30.50;99.90
31575;DHT22;18182;1.328;103.810;2023-06-14T04:16:10;30.30;99.90
31575;DHT22;18182;1.328;103.810;2023-06-14T04:18:36;30.20;99.90
31575;DHT22;18182;1.328;103.810;2023-06-14T04:21:02;30.10;99.90
31575;DHT22;18182;1.328;103.810;2023-06-14T04:23:28;30.10;99.90
31575;DHT22;18182;1.328;103.810;2023-06-14T04:25:55;30.00;99.90
31575;DHT22;18182;1.328;103.810;2023-06-14T04:28:27;30.00;99.90
31575;DHT22;18182;1.328;103.810;2023-06-14T04:30:53;29.90;99.90
31575;DHT22;18182;1.328;103.810;2023-06-14T04:33:19;29.80;99.90
31575;DHT22;18182;1.328;103.810;2023-06-14T04:35:45;29.80;99.90
31575;DHT22;18182;1.328;103.810;2023-06-14T04:38:19;29.70;99.90
31575;DHT22;18182;1.328;103.810;2023-06-14T04:40:50;29.70;99.90
31575;DHT22;18182;1.328;103.810;2023-06-14T04:43:18;29.50;99.90
31575;DHT22;18182;1.328;103.810;2023-06-14T04:45:52;29.50;99.90
31575;DHT22;18182;1.328;103.810;2023-06-14T04:48:21;29.50;99.90
31575;DHT22;18182;1.328;103.810;2023-06-14T04:50:48;29.50;99.90
31575;DHT22;18182;1.328;103.810;2023-06-14T04:53:18;29.50;99.90
31575;DHT22;18182;1.328;103.810;2023-06-14T04:55:48;29.50;99.90
31575;DHT22;18182;1.328;103.810;2023-06-14T04:58:16;29.50;99.90
31575;DHT22;18182;1.328;103.810;2023-06-14T05:00:42;29.60;99.90
31575;DHT22;18182;1.328;103.810;2023-06-14T05:03:09;29.70;99.90
31575;DHT22;18182;1.328;103.810;2023-06-14T05:05:41;29.70;99.90
31575;DHT22;18182;1.328;103.810;2023-06-14T05:08:07;29.70;99.90
31575;DHT22;18182;1.328;103.810;2023-06-14T05:10:35;29.80;99.90
31575;DHT22;18182;1.328;103.810;2023-06-14T05:13:01;29.80;99.90
31575;DHT22;18182;1.328;103.810;2023-06-14T05:15:27;29.80;99.90
31575;DHT22;18182;1.328;103.810;2023-06-14T05:17:54;29.70;99.90
31575;DHT22;18182;1.328;103.810;2023-06-14T05:20:22;29.80;99.90
31575;DHT22;18182;1.328;103.810;2023-06-14T05:22:52;29.90;99.90
31575;DHT22;18182;1.328;103.810;2023-06-14T05:25:21;30.00;99.90
31575;DHT22;18182;1.328;103.810;2023-06-14T05:27:47;30.00;99.90
31575;DHT22;18182;1.328;103.810;2023-06-14T05:30:14;30.00;99.90
31575;DHT22;18182;1.328;103.810;2023-06-14T05:32:41;30.10;99.90
31575;DHT22;18182;1.328;103.810;2023-06-14T05:35:07;30.20;99.90
31575;DHT22;18182;1.328;103.810;2023-06-14T05:37:33;30.20;99.90
31575;DHT22;18182;1.328;103.810;2023-06-14T05:39:59;30.30;99.90
31575;DHT22;18182;1.328;103.810;2023-06-14T05:42:25;30.30;99.90
31575;DHT22;18182;1.328;103.810;2023-06-14T05:44:52;30.40;99.90
31575;DHT22;18182;1.328;103.810;2023-06-14T05:47:18;30.40;99.90
31575;DHT22;18182;1.328;103.810;2023-06-14T05:49:44;30.50;99.90
31575;DHT22;18182;1.328;103.810;2023-06-14T05:52:10;30.50;99.90
31575;DHT22;18182;1.328;103.810;2023-06-14T05:54:38;30.50;99.90
31575;DHT22;18182;1.328;103.810;2023-06-14T05:57:04;30.50;99.90
31575;DHT22;18182;1.328;103.810;2023-06-14T05:59:31;30.50;99.90
31575;DHT22;18182;1.328;103.810;2023-06-14T06:01:58;30.40;99.90
31575;DHT22;18182;1.328;103.810;2023-06-14T06:04:24;30.30;99.90
31575;DHT22;18182;1.328;103.810;2023-06-14T06:06:51;30.30;99.90
31575;DHT22;18182;1.328;103.810;2023-06-14T06:09:17;30.30;99.90
31575;DHT22;18182;1.328;103.810;2023-06-14T06:11:44;30.40;99.90
31575;DHT22;18182;1.328;103.810;2023-06-14T06:14:10;30.40;99.90
31575;DHT22;18182;1.328;103.810;2023-06-14T06:16:36;30.50;99.90
31575;DHT22;18182;1.328;103.810;2023-06-14T06:19:02;30.50;99.90
31575;DHT22;18182;1.328;103.810;2023-06-14T06:21:28;30.60;99.90
31575;DHT22;18182;1.328;103.810;2023-06-14T06:23:55;30.50;99.90
31575;DHT22;18182;1.328;103.810;2023-06-14T06:26:21;30.40;99.90
31575;DHT22;18182;1.328;103.810;2023-06-14T06:28:48;30.30;99.90
31575;DHT22;18182;1.328;103.810;2023-06-14T06:31:14;30.30;99.90
31575;DHT22;18182;1.328;103.810;2023-06-14T06:33:40;30.30;99.90
31575;DHT22;18182;1.328;103.810;2023-06-14T06:36:07;30.30;99.90
31575;DHT22;18182;1.328;103.810;2023-06-14T06:38:33;30.30;99.90
31575;DHT22;18182;1.328;103.810;2023-06-14T06:40:59;30.40;99.90
31575;DHT22;18182;1.328;103.810;2023-06-14T06:43:25;30.40;99.90
31575;DHT22;18182;1.328;103.810;2023-06-14T06:45:52;30.50;99.90
31575;DHT22;18182;1.328;103.810;2023-06-14T06:48:18;30.50;99.90
31575;DHT22;18182;1.328;103.810;2023-06-14T06:50:44;30.50;99.90
31575;DHT22;18182;1.328;103.810;2023-06-14T06:53:10;30.60;99.90
31575;DHT22;18182;1.328;103.810;2023-06-14T06:55:37;30.50;99.90
31575;DHT22;18182;1.328;103.810;2023-06-14T06:58:03;30.50;99.90
31575;DHT22;18182;1.328;103.810;2023-06-14T07:00:30;30.50;99.90
31575;DHT22;18182;1.328;103.810;2023-06-14T07:02:56;30.60;99.90
31575;DHT22;18182;1.328;103.810;2023-06-14T07:05:23;30.60;99.90
31575;DHT22;18182;1.328;103.810;2023-06-14T07:07:49;30.60;99.90
31575;DHT22;18182;1.328;103.810;2023-06-14T07:10:15;30.70;99.90
31575;DHT22;18182;1.328;103.810;2023-06-14T07:12:42;30.70;99.90
31575;DHT22;18182;1.328;103.810;2023-06-14T07:15:08;30.80;99.90
31575;DHT22;18182;1.328;103.810;2023-06-14T07:17:34;30.90;99.90
31575;DHT22;18182;1.328;103.810;2023-06-14T07:20:02;30.90;99.90
31575;DHT22;18182;1.328;103.810;2023-06-14T07:22:41;30.90;99.90
31575;DHT22;18182;1.328;103.810;2023-06-14T07:25:11;31.00;99.90
31575;DHT22;18182;1.328;103.810;2023-06-14T07:27:43;31.10;99.90
31575;DHT22;18182;1.328;103.810;2023-06-14T07:30:09;31.10;99.90
31575;DHT22;18182;1.328;103.810;2023-06-14T07:32:36;31.10;99.90
31575;DHT22;18182;1.328;103.810;2023-06-14T07:35:02;31.00;99.90
31575;DHT22;18182;1.328;103.810;2023-06-14T07:37:28;31.10;99.90
31575;DHT22;18182;1.328;103.810;2023-06-14T07:39:55;31.20;99.90
31575;DHT22;18182;1.328;103.810;2023-06-14T07:42:21;31.30;99.90
31575;DHT22;18182;1.328;103.810;2023-06-14T07:44:47;31.20;99.90
31575;DHT22;18182;1.328;103.810;2023-06-14T07:47:13;31.20;99.90
31575;DHT22;18182;1.328;103.810;2023-06-14T07:49:41;31.10;99.90
31575;DHT22;18182;1.328;103.810;2023-06-14T07:52:07;31.00;99.90
31575;DHT22;18182;1.328;103.810;2023-06-14T07:54:33;30.90;99.90
31575;DHT22;18182;1.328;103.810;2023-06-14T07:56:59;30.90;99.90
31575;DHT22;18182;1.328;103.810;2023-06-14T07:59:26;30.90;99.90
31575;DHT22;18182;1.328;103.810;2023-06-14T08:01:52;30.80;99.90
31575;DHT22;18182;1.328;103.810;2023-06-14T08:04:18;30.70;99.90
31575;DHT22;18182;1.328;103.810;2023-06-14T08:06:44;30.70;99.90
31575;DHT22;18182;1.328;103.810;2023-06-14T08:09:11;30.80;99.90
31575;DHT22;18182;1.328;103.810;2023-06-14T08:11:38;30.70;99.90
31575;DHT22;18182;1.328;103.810;2023-06-14T08:14:04;30.70;99.90
31575;DHT22;18182;1.328;103.810;2023-06-14T08:16:31;30.70;99.90
31575;DHT22;18182;1.328;103.810;2023-06-14T08:18:57;30.70;99.90
31575;DHT22;18182;1.328;103.810;2023-06-14T08:21:23;30.60;99.90
31575;DHT22;18182;1.328;103.810;2023-06-14T08:23:49;30.70;99.90
31575;DHT22;18182;1.328;103.810;2023-06-14T08:26:18;30.60;99.90
31575;DHT22;18182;1.328;103.810;2023-06-14T08:28:44;30.70;99.90
31575;DHT22;18182;1.328;103.810;2023-06-14T08:31:11;30.70;99.90
31575;DHT22;18182;1.328;103.810;2023-06-14T08:33:37;30.70;99.90
31575;DHT22;18182;1.328;103.810;2023-06-14T08:36:04;30.70;99.90
31575;DHT22;18182;1.328;103.810;2023-06-14T08:38:30;30.70;99.90
31575;DHT22;18182;1.328;103.810;2023-06-14T08:40:57;30.60;99.90
31575;DHT22;18182;1.328;103.810;2023-06-14T08:43:23;30.60;99.90
31575;DHT22;18182;1.328;103.810;2023-06-14T08:45:51;30.50;99.90
31575;DHT22;18182;1.328;103.810;2023-06-14T08:48:19;30.60;99.90
31575;DHT22;18182;1.328;103.810;2023-06-14T08:50:47;30.60;99.90
31575;DHT22;18182;1.328;103.810;2023-06-14T08:53:14;30.50;99.90
31575;DHT22;18182;1.328;103.810;2023-06-14T08:55:46;30.50;99.90
31575;DHT22;18182;1.328;103.810;2023-06-14T08:58:13;30.40;99.90
31575;DHT22;18182;1.328;103.810;2023-06-14T09:00:40;30.40;99.90
31575;DHT22;18182;1.328;103.810;2023-06-14T09:03:08;30.40;99.90
31575;DHT22;18182;1.328;103.810;2023-06-14T09:05:38;30.40;99.90
31575;DHT22;18182;1.328;103.810;2023-06-14T09:08:05;30.40;99.90
31575;DHT22;18182;1.328;103.810;2023-06-14T09:10:32;30.30;99.90
31575;DHT22;18182;1.328;103.810;2023-06-14T09:13:03;30.30;99.90
31575;DHT22;18182;1.328;103.810;2023-06-14T09:15:30;30.30;99.90
31575;DHT22;18182;1.328;103.810;2023-06-14T09:17:56;30.40;99.90
31575;DHT22;18182;1.328;103.810;2023-06-14T09:20:23;30.40;99.90
31575;DHT22;18182;1.328;103.810;2023-06-14T09:22:50;30.40;99.90
31575;DHT22;18182;1.328;103.810;2023-06-14T09:25:16;30.40;99.90
31575;DHT22;18182;1.328;103.810;2023-06-14T09:27:43;30.40;99.90
31575;DHT22;18182;1.328;103.810;2023-06-14T09:30:11;30.50;99.90
31575;DHT22;18182;1.328;103.810;2023-06-14T09:32:38;30.50;99.90
31575;DHT22;18182;1.328;103.810;2023-06-14T09:35:08;30.50;99.90
31575;DHT22;18182;1.328;103.810;2023-06-14T09:37:34;30.50;99.90
31575;DHT22;18182;1.328;103.810;2023-06-14T09:40:01;30.30;99.90
31575;DHT22;18182;1.328;103.810;2023-06-14T09:42:29;30.30;99.90
31575;DHT22;18182;1.328;103.810;2023-06-14T09:44:56;30.30;99.90
31575;DHT22;18182;1.328;103.810;2023-06-14T09:47:24;30.30;99.90
31575;DHT22;18182;1.328;103.810;2023-06-14T09:49:51;30.30;99.90
31575;DHT22;18182;1.328;103.810;2023-06-14T09:52:20;30.20;99.90
31575;DHT22;18182;1.328;103.810;2023-06-14T09:54:47;30.30;99.90
31575;DHT22;18182;1.328;103.810;2023-06-14T09:57:14;30.30;99.90
31575;DHT22;18182;1.328;103.810;2023-06-14T09:59:44;30.30;99.90
31575;DHT22;18182;1.328;103.810;2023-06-14T10:02:18;30.30;99.90
31575;DHT22;18182;1.328;103.810;2023-06-14T10:04:50;30.30;99.90
31575;DHT22;18182;1.328;103.810;2023-06-14T10:07:19;30.30;99.90
31575;DHT22;18182;1.328;103.810;2023-06-14T10:09:46;30.30;99.90
31575;DHT22;18182;1.328;103.810;2023-06-14T10:12:18;30.30;99.90
31575;DHT22;18182;1.328;103.810;2023-06-14T10:14:50;30.30;99.90
31575;DHT22;18182;1.328;103.810;2023-06-14T10:17:40;30.30;99.90
31575;DHT22;18182;1.328;103.810;2023-06-14T10:22:50;30.30;99.90
31575;DHT22;18182;1.328;103.810;2023-06-14T10:25:29;30.30;99.90
31575;DHT22;18182;1.328;103.810;2023-06-14T10:31:03;30.20;99.90
31575;DHT22;18182;1.328;103.810;2023-06-14T10:33:32;30.10;99.90
31575;DHT22;18182;1.328;103.810;2023-06-14T10:38:43;30.10;99.90
31575;DHT22;18182;1.328;103.810;2023-06-14T10:41:10;30.00;99.90
31575;DHT22;18182;1.328;103.810;2023-06-14T10:43:36;30.00;99.90
31575;DHT22;18182;1.328;103.810;2023-06-14T10:46:15;29.90;99.90
31575;DHT22;18182;1.328;103.810;2023-06-14T10:48:45;29.90;99.90
31575;DHT22;18182;1.328;103.810;2023-06-14T10:51:20;29.90;99.90
31575;DHT22;18182;1.328;103.810;2023-06-14T10:53:48;29.90;99.90
31575;DHT22;18182;1.328;103.810;2023-06-14T10:56:24;29.80;99.90
31575;DHT22;18182;1.328;103.810;2023-06-14T10:58:52;29.90;99.90
31575;DHT22;18182;1.328;103.810;2023-06-14T11:01:38;29.80;99.90
31575;DHT22;18182;1.328;103.810;2023-06-14T11:04:08;29.80;99.90
31575;DHT22;18182;1.328;103.810;2023-06-14T11:06:45;29.80;99.90
31575;DHT22;18182;1.328;103.810;2023-06-14T11:11:50;29.80;99.90
31575;DHT22;18182;1.328;103.810;2023-06-14T11:14:17;29.80;99.90
31575;DHT22;18182;1.328;103.810;2023-06-14T11:16:47;29.80;99.90
31575;DHT22;18182;1.328;103.810;2023-06-14T11:19:13;29.80;99.90
31575;DHT22;18182;1.328;103.810;2023-06-14T11:21:40;29.80;99.90
31575;DHT22;18182;1.328;103.810;2023-06-14T11:24:09;29.80;99.90
31575;DHT22;18182;1.328;103.810;2023-06-14T11:26:37;29.70;99.90
31575;DHT22;18182;1.328;103.810;2023-06-14T11:29:03;29.70;99.90
31575;DHT22;18182;1.328;103.810;2023-06-14T11:31:30;29.70;99.90
31575;DHT22;18182;1.328;103.810;2023-06-14T11:33:56;29.70;99.90
31575;DHT22;18182;1.328;103.810;2023-06-14T11:36:23;29.60;99.90
31575;DHT22;18182;1.328;103.810;2023-06-14T11:38:57;29.60;99.90
31575;DHT22;18182;1.328;103.810;2023-06-14T11:41:24;29.60;99.90
31575;DHT22;18182;1.328;103.810;2023-06-14T11:43:54;29.60;99.90
31575;DHT22;18182;1.328;103.810;2023-06-14T11:46:20;29.60;99.90
31575;DHT22;18182;1.328;103.810;2023-06-14T11:48:49;29.50;99.90
31575;DHT22;18182;1.328;103.810;2023-06-14T11:51:16;29.50;99.90
31575;DHT22;18182;1.328;103.810;2023-06-14T11:53:42;29.50;99.90
31575;DHT22;18182;1.328;103.810;2023-06-14T11:56:08;29.50;99.90
31575;DHT22;18182;1.328;103.810;2023-06-14T11:58:35;29.50;99.90
31575;DHT22;18182;1.328;103.810;2023-06-14T12:01:02;29.50;99.90
31575;DHT22;18182;1.328;103.810;2023-06-14T12:03:28;29.40;99.90
31575;DHT22;18182;1.328;103.810;2023-06-14T12:06:04;29.40;99.90
31575;DHT22;18182;1.328;103.810;2023-06-14T12:08:34;29.50;99.90
31575;DHT22;18182;1.328;103.810;2023-06-14T12:11:05;29.50;99.90
31575;DHT22;18182;1.328;103.810;2023-06-14T12:13:31;29.50;99.90
31575;DHT22;18182;1.328;103.810;2023-06-14T12:15:57;29.50;99.90
31575;DHT22;18182;1.328;103.810;2023-06-14T12:18:34;29.50;99.90
31575;DHT22;18182;1.328;103.810;2023-06-14T12:21:00;29.50;99.90
31575;DHT22;18182;1.328;103.810;2023-06-14T12:23:46;29.50;99.90
31575;DHT22;18182;1.328;103.810;2023-06-14T12:26:17;29.50;99.90
31575;DHT22;18182;1.328;103.810;2023-06-14T12:28:46;29.50;99.90
31575;DHT22;18182;1.328;103.810;2023-06-14T12:31:14;29.50;99.90
31575;DHT22;18182;1.328;103.810;2023-06-14T12:33:40;29.50;99.90
31575;DHT22;18182;1.328;103.810;2023-06-14T12:36:07;29.50;99.90
31575;DHT22;18182;1.328;103.810;2023-06-14T12:38:33;29.50;99.90
31575;DHT22;18182;1.328;103.810;2023-06-14T12:41:00;29.50;99.90
31575;DHT22;18182;1.328;103.810;2023-06-14T12:43:26;29.50;99.90
31575;DHT22;18182;1.328;103.810;2023-06-14T12:45:52;29.50;99.90
31575;DHT22;18182;1.328;103.810;2023-06-14T12:48:18;29.50;99.90
31575;DHT22;18182;1.328;103.810;2023-06-14T12:50:45;29.60;99.90
31575;DHT22;18182;1.328;103.810;2023-06-14T12:53:11;29.60;99.90
31575;DHT22;18182;1.328;103.810;2023-06-14T12:55:37;29.60;99.90
31575;DHT22;18182;1.328;103.810;2023-06-14T12:58:04;29.50;99.90
31575;DHT22;18182;1.328;103.810;2023-06-14T13:00:30;29.50;99.90
31575;DHT22;18182;1.328;103.810;2023-06-14T13:02:57;29.50;99.90
31575;DHT22;18182;1.328;103.810;2023-06-14T13:05:23;29.50;99.90
31575;DHT22;18182;1.328;103.810;2023-06-14T13:07:50;29.50;99.90
31575;DHT22;18182;1.328;103.810;2023-06-14T13:10:17;29.50;99.90
31575;DHT22;18182;1.328;103.810;2023-06-14T13:12:43;29.50;99.90
31575;DHT22;18182;1.328;103.810;2023-06-14T13:15:09;29.50;99.90
31575;DHT22;18182;1.328;103.810;2023-06-14T13:17:36;29.40;99.90
31575;DHT22;18182;1.328;103.810;2023-06-14T13:20:05;29.40;99.90
31575;DHT22;18182;1.328;103.810;2023-06-14T13:22:32;29.40;99.90
31575;DHT22;18182;1.328;103.810;2023-06-14T13:24:58;29.40;99.90
31575;DHT22;18182;1.328;103.810;2023-06-14T13:27:25;29.40;99.90
31575;DHT22;18182;1.328;103.810;2023-06-14T13:29:51;29.40;99.90
31575;DHT22;18182;1.328;103.810;2023-06-14T13:32:17;29.50;99.90
31575;DHT22;18182;1.328;103.810;2023-06-14T13:34:44;29.50;99.90
31575;DHT22;18182;1.328;103.810;2023-06-14T13:37:10;29.50;99.90
31575;DHT22;18182;1.328;103.810;2023-06-14T13:39:36;29.50;99.90
31575;DHT22;18182;1.328;103.810;2023-06-14T13:42:03;29.50;99.90
31575;DHT22;18182;1.328;103.810;2023-06-14T13:44:29;29.50;99.90
31575;DHT22;18182;1.328;103.810;2023-06-14T13:46:55;29.60;99.90
31575;DHT22;18182;1.328;103.810;2023-06-14T13:49:22;29.60;99.90
31575;DHT22;18182;1.328;103.810;2023-06-14T13:51:48;29.70;99.90
31575;DHT22;18182;1.328;103.810;2023-06-14T13:54:15;29.70;99.90
31575;DHT22;18182;1.328;103.810;2023-06-14T13:56:41;29.80;99.90
31575;DHT22;18182;1.328;103.810;2023-06-14T13:59:07;29.80;99.90
31575;DHT22;18182;1.328;103.810;2023-06-14T14:01:33;29.80;99.90
31575;DHT22;18182;1.328;103.810;2023-06-14T14:04:00;29.80;99.90
31575;DHT22;18182;1.328;103.810;2023-06-14T14:06:26;29.80;99.90
31575;DHT22;18182;1.328;103.810;2023-06-14T14:08:52;29.80;99.90
31575;DHT22;18182;1.328;103.810;2023-06-14T14:11:19;29.70;99.90
31575;DHT22;18182;1.328;103.810;2023-06-14T14:13:46;29.70;99.90
31575;DHT22;18182;1.328;103.810;2023-06-14T14:16:12;29.80;99.90
31575;DHT22;18182;1.328;103.810;2023-06-14T14:18:38;29.70;99.90
31575;DHT22;18182;1.328;103.810;2023-06-14T14:21:05;29.80;99.90
31575;DHT22;18182;1.328;103.810;2023-06-14T14:23:31;29.80;99.90
31575;DHT22;18182;1.328;103.810;2023-06-14T14:25:57;29.80;99.90
31575;DHT22;18182;1.328;103.810;2023-06-14T14:28:23;29.90;99.90
31575;DHT22;18182;1.328;103.810;2023-06-14T14:30:50;29.90;99.90
31575;DHT22;18182;1.328;103.810;2023-06-14T14:33:16;29.90;99.90
31575;DHT22;18182;1.328;103.810;2023-06-14T14:35:43;29.90;99.90
31575;DHT22;18182;1.328;103.810;2023-06-14T14:38:14;30.00;99.90
31575;DHT22;18182;1.328;103.810;2023-06-14T14:40:43;29.90;99.90
31575;DHT22;18182;1.328;103.810;2023-06-14T14:43:10;29.90;99.90
31575;DHT22;18182;1.328;103.810;2023-06-14T14:45:36;29.90;99.90
31575;DHT22;18182;1.328;103.810;2023-06-14T14:48:03;29.90;99.90
31575;DHT22;18182;1.328;103.810;2023-06-14T14:50:29;29.90;99.90
31575;DHT22;18182;1.328;103.810;2023-06-14T14:52:55;29.90;99.90
31575;DHT22;18182;1.328;103.810;2023-06-14T14:55:22;29.90;99.90
31575;DHT22;18182;1.328;103.810;2023-06-14T14:57:48;29.90;99.90
31575;DHT22;18182;1.328;103.810;2023-06-14T15:00:14;29.80;99.90
31575;DHT22;18182;1.328;103.810;2023-06-14T15:02:40;29.80;99.90
31575;DHT22;18182;1.328;103.810;2023-06-14T15:05:07;29.90;99.90
31575;DHT22;18182;1.328;103.810;2023-06-14T15:07:33;29.90;99.90
31575;DHT22;18182;1.328;103.810;2023-06-14T15:10:05;29.90;99.90
31575;DHT22;18182;1.328;103.810;2023-06-14T15:12:31;29.90;99.90
31575;DHT22;18182;1.328;103.810;2023-06-14T15:14:57;29.90;99.90
31575;DHT22;18182;1.328;103.810;2023-06-14T15:17:23;29.90;99.90
31575;DHT22;18182;1.328;103.810;2023-06-14T15:19:50;29.90;99.90
31575;DHT22;18182;1.328;103.810;2023-06-14T15:22:16;29.80;99.90
31575;DHT22;18182;1.328;103.810;2023-06-14T15:24:45;29.80;99.90
31575;DHT22;18182;1.328;103.810;2023-06-14T15:27:11;29.70;99.90
31575;DHT22;18182;1.328;103.810;2023-06-14T15:29:38;29.60;99.90